ADDS METAR Data INFO
IDs: Format: Raw Decoded Include TAF

Data at: 2224 UTC 24 Jun 2018

KTCS 242153Z AUTO 24011G15KT 210V270 10SM CLR 37/M05 A2989 RMK AO2 SLP013 T03721050 PNO $
KTCS 242053Z AUTO 00000KT 10SM CLR 36/M04 A2992 RMK AO2 SLP023 T03611044 58019 PNO $
KTCS 241953Z AUTO 19010G18KT 10SM CLR 36/M04 A2994 RMK AO2 SLP029 T03611039 PNO $
KTCS 241853Z AUTO 18007KT 110V220 10SM CLR 35/M04 A2996 RMK AO2 SLP038 T03501039 PNO $
KTCS 241753Z AUTO VRB06KT 10SM CLR 34/M02 A2998 RMK AO2 SLP043 T03441022 10344 20239 58004 PNO $
KTCS 241653Z AUTO 32009KT 280V360 10SM CLR 33/M02 A2999 RMK AO2 SLP046 T03331022 PNO $
KTCS 241553Z AUTO 30013G22KT 10SM CLR 31/M01 A3000 RMK AO2 SLP051 T03111006 PNO $
KTCS 241453Z AUTO 30015G22KT 10SM CLR 30/M02 A2999 RMK AO2 SLP048 T03001017 51015 PNO $
KTCS 241353Z AUTO 29018G23KT 10SM CLR 28/M03 A2998 RMK AO2 SLP043 T02781028 PNO $
KTCS 241253Z AUTO 28008KT 10SM CLR 25/M02 A2997 RMK AO2 SLP042 T02501022
KTCS 241153Z AUTO 32012KT 10SM CLR 24/M02 A2994 RMK AO2 SLP032 T02441022 10300 20244 53012
KTCS 241053Z AUTO 30011G19KT 10SM CLR 26/M02 A2992 RMK AO2 SLP022 T02561017
KTCS 240953Z AUTO 31012G19KT 10SM CLR 27/M02 A2991 RMK AO2 SLP018 T02671022
KTCS 240853Z AUTO 29009KT 10SM CLR 27/M02 A2990 RMK AO2 SLP016 T02671022 51006
KTCS 240753Z AUTO 27013KT 10SM CLR 28/M02 A2990 RMK AO2 SLP015 T02831022
KTCS 240653Z AUTO 26011KT 10SM CLR 29/M03 A2989 RMK AO2 SLP011 T02891028 403940239
KTCS 240553Z AUTO 26010KT 10SM CLR 30/M03 A2988 RMK AO2 SLP009 T03001033 10383 20300 51014
KTCS 240453Z AUTO 29014KT 10SM CLR 32/M04 A2987 RMK AO2 SLP004 T03171044
KTCS 240353Z AUTO 29011KT 10SM CLR 32/M06 A2985 RMK AO2 SLP999 T03221056
KTCS 240253Z AUTO 28012KT 10SM CLR 34/M06 A2983 RMK AO2 PK WND 27026/0207 WSHFT 0147 SLP993 T03391061 53006
KTCS 240207Z AUTO 27018G26KT 10SM CLR 36/M07 A2981 RMK AO2 PK WND 27026/0207 WSHFT 0147 T03611067
KTCS 240153Z AUTO 28011G22KT 10SM CLR 37/M07 A2980 RMK AO2 SLP980 T03671072
KTCS 240053Z AUTO 17013G21KT 10SM CLR 38/M07 A2980 RMK AO2 SLP980 T03781067
KTCS 232353Z AUTO 18016G22KT 10SM CLR 38/M09 A2981 RMK AO2 SLP988 T03831089 10394 20350 56021
KTCS 232253Z AUTO 14010G15KT 10SM CLR 38/M10 A2984 RMK AO2 SLP996 T03831100
KTCS 232153Z AUTO 14012G19KT 10SM CLR 39/M10 A2985 RMK AO2 SLP000 T03941100
KTCS 232053Z AUTO 15008G20KT 10SM CLR 38/M09 A2989 RMK AO2 SLP011 T03831094 56019
KTCS 231953Z AUTO VRB03KT 10SM CLR 37/M12 A2991 RMK AO2 SLP017 T03671117
KTCS 231853Z AUTO 22009G15KT 10SM CLR 37/M12 A2993 RMK AO2 SLP023 T03671117
KTCS 231753Z AUTO VRB03KT 10SM CLR 36/M10 A2995 RMK AO2 SLP032 T03561100 10356 20244 58008
KTCS 231653Z AUTO VRB03KT 10SM CLR 34/M08 A2997 RMK AO2 SLP041 T03391078
KTCS 231553Z AUTO VRB04KT 10SM CLR 32/M07 A2998 RMK AO2 SLP042 T03221067
KTCS 231453Z AUTO 35005KT 10SM CLR 31/M06 A2998 RMK AO2 SLP043 T03061056 51014
KTCS 231353Z AUTO 32006KT 10SM CLR 28/M06 A2996 RMK AO2 SLP037 T02831056
KTCS 231253Z AUTO 34003KT 10SM CLR 27/M07 A2995 RMK AO2 SLP033 T02671067
KTCS 231153Z AUTO 30008KT 10SM CLR 24/M07 A2993 RMK AO2 SLP027 T02441072 10311 20239 53008
KTCS 231053Z AUTO 31007KT 10SM CLR 24/M07 A2992 RMK AO2 SLP023 T02391072